sensor_id;sensor_type;location;lat;lon;timestamp;pressure;altitude;pressure_sealevel;temperature;humidity
13968;BME280;39536;52.198;9.920;2024-02-16T00:01:47;100412.72;;;13.08;100.00
13968;BME280;39536;52.198;9.920;2024-02-16T00:04:14;100421.28;;;13.11;100.00
13968;BME280;39536;52.198;9.920;2024-02-16T00:06:40;100409.06;;;13.12;100.00
13968;BME280;39536;52.198;9.920;2024-02-16T00:09:08;100415.91;;;13.14;100.00
13968;BME280;39536;52.198;9.920;2024-02-16T00:11:36;100414.78;;;13.20;100.00
13968;BME280;39536;52.198;9.920;2024-02-16T00:14:02;100407.91;;;13.17;100.00
13968;BME280;39536;52.198;9.920;2024-02-16T00:16:29;100408.47;;;13.26;100.00
13968;BME280;39536;52.198;9.920;2024-02-16T00:18:55;100408.25;;;13.30;100.00
13968;BME280;39536;52.198;9.920;2024-02-16T00:21:22;100396.78;;;13.33;100.00
13968;BME280;39536;52.198;9.920;2024-02-16T00:23:48;100405.50;;;13.33;100.00
13968;BME280;39536;52.198;9.920;2024-02-16T00:26:16;100407.34;;;13.31;100.00
13968;BME280;39536;52.198;9.920;2024-02-16T00:28:43;100407.25;;;13.33;100.00
13968;BME280;39536;52.198;9.920;2024-02-16T00:31:09;100400.19;;;13.35;100.00
13968;BME280;39536;52.198;9.920;2024-02-16T00:33:36;100396.78;;;13.33;100.00
13968;BME280;39536;52.198;9.920;2024-02-16T00:36:02;100373.38;;;13.30;100.00
13968;BME280;39536;52.198;9.920;2024-02-16T00:38:29;100377.44;;;13.37;100.00
13968;BME280;39536;52.198;9.920;2024-02-16T00:40:55;100375.94;;;13.31;100.00
13968;BME280;39536;52.198;9.920;2024-02-16T00:43:23;100368.88;;;13.33;100.00
13968;BME280;39536;52.198;9.920;2024-02-16T00:45:50;100362.03;;;13.31;100.00
13968;BME280;39536;52.198;9.920;2024-02-16T00:48:16;100359.16;;;13.35;100.00
13968;BME280;39536;52.198;9.920;2024-02-16T00:50:43;100356.63;;;13.34;100.00
13968;BME280;39536;52.198;9.920;2024-02-16T00:53:09;100355.56;;;13.38;100.00
13968;BME280;39536;52.198;9.920;2024-02-16T00:55:36;100349.78;;;13.31;100.00
13968;BME280;39536;52.198;9.920;2024-02-16T00:58:03;100358.41;;;13.33;100.00
13968;BME280;39536;52.198;9.920;2024-02-16T01:00:31;100347.66;;;13.39;100.00
13968;BME280;39536;52.198;9.920;2024-02-16T01:02:58;100346.59;;;13.44;100.00
13968;BME280;39536;52.198;9.920;2024-02-16T01:05:24;100340.72;;;13.38;100.00
13968;BME280;39536;52.198;9.920;2024-02-16T01:07:51;100339.88;;;13.38;100.00
13968;BME280;39536;52.198;9.920;2024-02-16T01:10:18;100336.31;;;13.39;100.00
13968;BME280;39536;52.198;9.920;2024-02-16T01:12:44;100344.97;;;13.41;100.00
13968;BME280;39536;52.198;9.920;2024-02-16T01:15:11;100331.53;;;13.30;100.00
13968;BME280;39536;52.198;9.920;2024-02-16T01:17:39;100334.88;;;13.33;100.00
13968;BME280;39536;52.198;9.920;2024-02-16T01:20:06;100327.03;;;13.33;100.00
13968;BME280;39536;52.198;9.920;2024-02-16T01:22:35;100325.69;;;13.23;100.00
13968;BME280;39536;52.198;9.920;2024-02-16T01:25:02;100312.44;;;13.09;100.00
13968;BME280;39536;52.198;9.920;2024-02-16T01:27:29;100305.34;;;13.11;100.00
13968;BME280;39536;52.198;9.920;2024-02-16T01:29:55;100314.13;;;13.10;100.00
13968;BME280;39536;52.198;9.920;2024-02-16T01:32:22;100300.28;;;13.08;100.00
13968;BME280;39536;52.198;9.920;2024-02-16T01:34:50;100299.72;;;13.01;100.00
13968;BME280;39536;52.198;9.920;2024-02-16T01:37:17;100304.78;;;13.04;100.00
13968;BME280;39536;52.198;9.920;2024-02-16T01:39:43;100300.97;;;13.11;100.00
13968;BME280;39536;52.198;9.920;2024-02-16T01:42:12;100306.19;;;13.11;100.00
13968;BME280;39536;52.198;9.920;2024-02-16T01:44:39;100304.22;;;13.16;100.00
13968;BME280;39536;52.198;9.920;2024-02-16T01:47:05;100300.97;;;13.11;100.00
13968;BME280;39536;52.198;9.920;2024-02-16T01:49:33;100303.00;;;13.24;100.00
13968;BME280;39536;52.198;9.920;2024-02-16T01:52:01;100307.53;;;13.20;100.00
13968;BME280;39536;52.198;9.920;2024-02-16T01:54:28;100298.16;;;13.16;100.00
13968;BME280;39536;52.198;9.920;2024-02-16T01:56:55;100302.25;;;13.22;100.00
13968;BME280;39536;52.198;9.920;2024-02-16T01:59:22;100299.63;;;13.22;100.00
13968;BME280;39536;52.198;9.920;2024-02-16T02:01:49;100294.22;;;13.26;100.00
13968;BME280;39536;52.198;9.920;2024-02-16T02:04:16;100294.84;;;13.31;100.00
13968;BME280;39536;52.198;9.920;2024-02-16T02:06:43;100281.31;;;13.22;100.00
13968;BME280;39536;52.198;9.920;2024-02-16T02:09:11;100287.28;;;13.25;100.00
13968;BME280;39536;52.198;9.920;2024-02-16T02:11:37;100298.59;;;13.26;100.00
13968;BME280;39536;52.198;9.920;2024-02-16T02:14:04;100292.63;;;13.22;100.00
13968;BME280;39536;52.198;9.920;2024-02-16T02:16:30;100290.06;;;13.21;100.00
13968;BME280;39536;52.198;9.920;2024-02-16T02:18:57;100296.69;;;13.29;100.00
13968;BME280;39536;52.198;9.920;2024-02-16T02:21:24;100289.06;;;13.25;100.00
13968;BME280;39536;52.198;9.920;2024-02-16T02:23:52;100297.75;;;13.25;100.00
13968;BME280;39536;52.198;9.920;2024-02-16T02:26:18;100294.75;;;13.33;100.00
13968;BME280;39536;52.198;9.920;2024-02-16T02:28:45;100298.66;;;13.24;100.00
13968;BME280;39536;52.198;9.920;2024-02-16T02:31:12;100296.91;;;13.25;100.00
13968;BME280;39536;52.198;9.920;2024-02-16T02:33:40;100297.31;;;13.15;100.00
13968;BME280;39536;52.198;9.920;2024-02-16T02:36:06;100286.75;;;13.17;100.00
13968;BME280;39536;52.198;9.920;2024-02-16T02:38:33;100283.16;;;13.20;100.00
13968;BME280;39536;52.198;9.920;2024-02-16T02:41:01;100288.97;;;13.26;100.00
13968;BME280;39536;52.198;9.920;2024-02-16T02:43:29;100279.69;;;13.19;100.00
13968;BME280;39536;52.198;9.920;2024-02-16T02:45:55;100278.06;;;13.16;100.00
13968;BME280;39536;52.198;9.920;2024-02-16T02:48:22;100280.34;;;13.24;100.00
13968;BME280;39536;52.198;9.920;2024-02-16T02:50:48;100279.34;;;13.27;100.00
13968;BME280;39536;52.198;9.920;2024-02-16T02:53:15;100275.75;;;13.29;100.00
13968;BME280;39536;52.198;9.920;2024-02-16T02:55:43;100271.44;;;13.28;100.00
13968;BME280;39536;52.198;9.920;2024-02-16T02:58:11;100271.34;;;13.30;100.00
13968;BME280;39536;52.198;9.920;2024-02-16T03:00:37;100271.72;;;13.22;100.00
13968;BME280;39536;52.198;9.920;2024-02-16T03:03:04;100272.22;;;13.30;100.00
13968;BME280;39536;52.198;9.920;2024-02-16T03:05:31;100268.59;;;13.33;100.00
13968;BME280;39536;52.198;9.920;2024-02-16T03:07:57;100267.59;;;13.35;100.00
13968;BME280;39536;52.198;9.920;2024-02-16T03:10:29;100271.59;;;13.43;100.00
13968;BME280;39536;52.198;9.920;2024-02-16T03:12:59;100268.25;;;13.40;100.00
13968;BME280;39536;52.198;9.920;2024-02-16T03:15:27;100256.94;;;13.40;100.00
13968;BME280;39536;52.198;9.920;2024-02-16T03:17:54;100259.69;;;13.37;100.00
13968;BME280;39536;52.198;9.920;2024-02-16T03:20:21;100257.00;;;13.38;100.00
13968;BME280;39536;52.198;9.920;2024-02-16T03:22:48;100259.75;;;13.35;100.00
13968;BME280;39536;52.198;9.920;2024-02-16T03:25:15;100264.22;;;13.33;100.00
13968;BME280;39536;52.198;9.920;2024-02-16T03:27:42;100258.13;;;13.33;100.00
13968;BME280;39536;52.198;9.920;2024-02-16T03:30:09;100268.31;;;13.39;100.00
13968;BME280;39536;52.198;9.920;2024-02-16T03:32:37;100265.13;;;13.32;100.00
13968;BME280;39536;52.198;9.920;2024-02-16T03:35:04;100255.50;;;13.33;100.00
13968;BME280;39536;52.198;9.920;2024-02-16T03:37:31;100262.53;;;13.32;100.00
13968;BME280;39536;52.198;9.920;2024-02-16T03:39:57;100257.13;;;13.35;100.00
13968;BME280;39536;52.198;9.920;2024-02-16T03:42:24;100252.00;;;13.34;100.00
13968;BME280;39536;52.198;9.920;2024-02-16T03:44:50;100259.91;;;13.32;100.00
13968;BME280;39536;52.198;9.920;2024-02-16T03:47:17;100257.94;;;13.37;100.00
13968;BME280;39536;52.198;9.920;2024-02-16T03:49:45;100257.84;;;13.39;100.00
13968;BME280;39536;52.198;9.920;2024-02-16T03:52:11;100260.00;;;13.31;100.00
13968;BME280;39536;52.198;9.920;2024-02-16T03:54:39;100257.00;;;13.38;100.00
13968;BME280;39536;52.198;9.920;2024-02-16T03:57:07;100263.16;;;13.37;100.00
13968;BME280;39536;52.198;9.920;2024-02-16T03:59:36;100257.84;;;13.39;100.00
13968;BME280;39536;52.198;9.920;2024-02-16T04:02:03;100260.53;;;13.37;100.00
13968;BME280;39536;52.198;9.920;2024-02-16T04:04:29;100260.53;;;13.37;100.00
13968;BME280;39536;52.198;9.920;2024-02-16T04:06:57;100258.75;;;13.38;100.00
13968;BME280;39536;52.198;9.920;2024-02-16T04:09:23;100254.31;;;13.40;100.00
13968;BME280;39536;52.198;9.920;2024-02-16T04:11:50;100251.75;;;13.38;100.00
13968;BME280;39536;52.198;9.920;2024-02-16T04:14:17;100252.00;;;13.34;100.00
13968;BME280;39536;52.198;9.920;2024-02-16T04:16:43;100255.75;;;13.28;100.00
13968;BME280;39536;52.198;9.920;2024-02-16T04:19:10;100251.78;;;13.20;100.00
13968;BME280;39536;52.198;9.920;2024-02-16T04:21:36;100250.00;;;13.20;100.00
13968;BME280;39536;52.198;9.920;2024-02-16T04:24:05;100252.63;;;13.20;100.00
13968;BME280;39536;52.198;9.920;2024-02-16T04:26:31;100245.84;;;13.16;100.00
13968;BME280;39536;52.198;9.920;2024-02-16T04:28:58;100252.91;;;13.14;100.00
13968;BME280;39536;52.198;9.920;2024-02-16T04:31:24;100253.75;;;13.14;100.00
13968;BME280;39536;52.198;9.920;2024-02-16T04:33:51;100250.38;;;13.12;100.00
13968;BME280;39536;52.198;9.920;2024-02-16T04:36:18;100255.66;;;13.11;100.00
13968;BME280;39536;52.198;9.920;2024-02-16T04:38:45;100259.13;;;13.11;100.00
13968;BME280;39536;52.198;9.920;2024-02-16T04:41:12;100254.06;;;13.08;100.00
13968;BME280;39536;52.198;9.920;2024-02-16T04:43:39;100252.66;;;13.01;100.00
13968;BME280;39536;52.198;9.920;2024-02-16T04:46:05;100249.13;;;13.02;100.00
13968;BME280;39536;52.198;9.920;2024-02-16T04:48:32;100239.56;;;13.01;100.00
13968;BME280;39536;52.198;9.920;2024-02-16T04:50:59;100236.53;;;12.91;100.00
13968;BME280;39536;52.198;9.920;2024-02-16T04:53:25;100239.94;;;12.93;100.00
13968;BME280;39536;52.198;9.920;2024-02-16T04:55:52;100238.22;;;12.92;100.00
13968;BME280;39536;52.198;9.920;2024-02-16T04:58:20;100244.53;;;12.88;100.00
13968;BME280;39536;52.198;9.920;2024-02-16T05:00:47;100248.06;;;12.87;100.00
13968;BME280;39536;52.198;9.920;2024-02-16T05:03:14;100248.28;;;12.83;100.00
13968;BME280;39536;52.198;9.920;2024-02-16T05:05:41;100246.44;;;12.85;100.00
13968;BME280;39536;52.198;9.920;2024-02-16T05:08:07;100242.28;;;12.81;100.00
13968;BME280;39536;52.198;9.920;2024-02-16T05:10:34;100241.38;;;12.82;100.00
13968;BME280;39536;52.198;9.920;2024-02-16T05:13:00;100245.06;;;12.78;100.00
13968;BME280;39536;52.198;9.920;2024-02-16T05:15:28;100250.41;;;12.75;100.00
13968;BME280;39536;52.198;9.920;2024-02-16T05:17:54;100244.19;;;12.77;100.00
13968;BME280;39536;52.198;9.920;2024-02-16T05:20:21;100242.56;;;12.75;100.00
13968;BME280;39536;52.198;9.920;2024-02-16T05:22:48;100241.50;;;12.79;100.00
13968;BME280;39536;52.198;9.920;2024-02-16T05:25:15;100244.13;;;12.79;100.00
13968;BME280;39536;52.198;9.920;2024-02-16T05:27:43;100244.75;;;12.84;100.00
13968;BME280;39536;52.198;9.920;2024-02-16T05:30:11;100241.91;;;12.88;100.00
13968;BME280;39536;52.198;9.920;2024-02-16T05:32:41;100239.81;;;12.97;100.00
13968;BME280;39536;52.198;9.920;2024-02-16T05:35:09;100239.03;;;12.94;100.00
13968;BME280;39536;52.198;9.920;2024-02-16T05:37:40;100236.34;;;12.96;100.00
13968;BME280;39536;52.198;9.920;2024-02-16T05:40:09;100237.34;;;12.93;100.00
13968;BME280;39536;52.198;9.920;2024-02-16T05:42:47;100236.13;;;13.01;100.00
13968;BME280;39536;52.198;9.920;2024-02-16T05:45:14;100231.59;;;13.04;100.00
13968;BME280;39536;52.198;9.920;2024-02-16T05:47:42;100231.44;;;13.07;100.00
13968;BME280;39536;52.198;9.920;2024-02-16T05:50:10;100237.44;;;13.09;100.00
13968;BME280;39536;52.198;9.920;2024-02-16T05:52:37;100232.13;;;13.11;100.00
13968;BME280;39536;52.198;9.920;2024-02-16T05:55:05;100229.06;;;13.20;100.00
13968;BME280;39536;52.198;9.920;2024-02-16T05:57:31;100221.91;;;13.24;100.00
13968;BME280;39536;52.198;9.920;2024-02-16T05:59:58;100225.16;;;13.30;100.00
13968;BME280;39536;52.198;9.920;2024-02-16T06:02:24;100221.22;;;13.20;100.00
13968;BME280;39536;52.198;9.920;2024-02-16T06:04:53;100228.81;;;13.26;100.00
13968;BME280;39536;52.198;9.920;2024-02-16T06:07:20;100228.75;;;13.28;100.00
13968;BME280;39536;52.198;9.920;2024-02-16T06:09:47;100224.28;;;13.30;100.00
13968;BME280;39536;52.198;9.920;2024-02-16T06:12:13;100230.53;;;13.27;100.00
13968;BME280;39536;52.198;9.920;2024-02-16T06:14:41;100225.34;;;13.26;100.00
13968;BME280;39536;52.198;9.920;2024-02-16T06:17:07;100232.38;;;13.24;100.00
13968;BME280;39536;52.198;9.920;2024-02-16T06:19:34;100241.97;;;13.25;100.00
13968;BME280;39536;52.198;9.920;2024-02-16T06:22:02;100238.53;;;13.23;100.00
13968;BME280;39536;52.198;9.920;2024-02-16T06:24:29;100237.63;;;13.24;100.00
13968;BME280;39536;52.198;9.920;2024-02-16T06:26:55;100236.03;;;13.21;100.00
13968;BME280;39536;52.198;9.920;2024-02-16T06:29:22;100238.53;;;13.23;100.00
13968;BME280;39536;52.198;9.920;2024-02-16T06:31:48;100228.19;;;13.21;100.00
13968;BME280;39536;52.198;9.920;2024-02-16T06:34:15;100216.22;;;13.15;100.00
13968;BME280;39536;52.198;9.920;2024-02-16T06:36:42;100226.59;;;13.17;100.00
13968;BME280;39536;52.198;9.920;2024-02-16T06:39:11;100228.31;;;13.18;100.00
13968;BME280;39536;52.198;9.920;2024-02-16T06:41:41;100233.41;;;13.21;100.00
13968;BME280;39536;52.198;9.920;2024-02-16T06:44:09;100238.53;;;13.23;100.00
13968;BME280;39536;52.198;9.920;2024-02-16T06:46:36;100235.16;;;13.21;100.00
13968;BME280;39536;52.198;9.920;2024-02-16T06:49:02;100231.97;;;13.14;100.00
13968;BME280;39536;52.198;9.920;2024-02-16T06:51:29;100229.31;;;13.15;100.00
13968;BME280;39536;52.198;9.920;2024-02-16T06:53:55;100231.84;;;13.17;100.00
13968;BME280;39536;52.198;9.920;2024-02-16T06:56:23;100230.94;;;13.18;100.00
13968;BME280;39536;52.198;9.920;2024-02-16T06:58:50;100241.41;;;13.18;100.00
13968;BME280;39536;52.198;9.920;2024-02-16T07:01:17;100240.38;;;13.21;100.00
13968;BME280;39536;52.198;9.920;2024-02-16T07:03:44;100244.63;;;13.23;100.00
13968;BME280;39536;52.198;9.920;2024-02-16T07:06:11;100247.63;;;13.15;100.00
13968;BME280;39536;52.198;9.920;2024-02-16T07:08:39;100249.94;;;13.22;100.00
13968;BME280;39536;52.198;9.920;2024-02-16T07:11:05;100250.56;;;13.27;100.00
13968;BME280;39536;52.198;9.920;2024-02-16T07:13:33;100248.06;;;13.25;100.00
13968;BME280;39536;52.198;9.920;2024-02-16T07:16:01;100242.94;;;13.22;100.00
13968;BME280;39536;52.198;9.920;2024-02-16T07:18:29;100242.53;;;13.12;100.00
13968;BME280;39536;52.198;9.920;2024-02-16T07:20:55;100234.97;;;13.06;100.00
13968;BME280;39536;52.198;9.920;2024-02-16T07:23:22;100247.22;;;13.06;100.00
13968;BME280;39536;52.198;9.920;2024-02-16T07:25:49;100244.44;;;13.09;100.00
13968;BME280;39536;52.198;9.920;2024-02-16T07:28:15;100250.59;;;13.08;100.00
13968;BME280;39536;52.198;9.920;2024-02-16T07:30:43;100249.69;;;13.09;100.00
13968;BME280;39536;52.198;9.920;2024-02-16T07:33:10;100253.91;;;13.11;100.00
13968;BME280;39536;52.198;9.920;2024-02-16T07:35:36;100261.53;;;13.16;100.00
13968;BME280;39536;52.198;9.920;2024-02-16T07:38:04;100264.69;;;13.23;100.00
13968;BME280;39536;52.198;9.920;2024-02-16T07:40:31;100268.84;;;13.28;100.00
13968;BME280;39536;52.198;9.920;2024-02-16T07:42:58;100260.91;;;13.30;100.00
13968;BME280;39536;52.198;9.920;2024-02-16T07:45:24;100262.53;;;13.32;100.00
13968;BME280;39536;52.198;9.920;2024-02-16T07:47:52;100255.50;;;13.33;100.00
13968;BME280;39536;52.198;9.920;2024-02-16T07:50:19;100253.28;;;13.25;100.00
13968;BME280;39536;52.198;9.920;2024-02-16T07:52:46;100249.75;;;13.26;100.00
13968;BME280;39536;52.198;9.920;2024-02-16T07:55:13;100253.97;;;13.29;100.00
13968;BME280;39536;52.198;9.920;2024-02-16T07:57:40;100252.75;;;13.36;100.00
13968;BME280;39536;52.198;9.920;2024-02-16T08:00:07;100248.06;;;13.43;100.00
13968;BME280;39536;52.198;9.920;2024-02-16T08:02:36;100248.63;;;13.49;100.00
13968;BME280;39536;52.198;9.920;2024-02-16T08:05:06;100257.09;;;13.54;100.00
13968;BME280;39536;52.198;9.920;2024-02-16T08:07:33;100254.25;;;13.59;100.00
13968;BME280;39536;52.198;9.920;2024-02-16T08:09:59;100257.56;;;13.62;100.00
13968;BME280;39536;52.198;9.920;2024-02-16T08:12:26;100255.41;;;13.71;100.00
13968;BME280;39536;52.198;9.920;2024-02-16T08:14:53;100256.16;;;13.73;100.00
13968;BME280;39536;52.198;9.920;2024-02-16T08:17:20;100254.41;;;13.73;100.00
13968;BME280;39536;52.198;9.920;2024-02-16T08:19:52;100254.19;;;13.78;100.00
13968;BME280;39536;52.198;9.920;2024-02-16T08:22:21;100256.34;;;13.87;100.00
13968;BME280;39536;52.198;9.920;2024-02-16T08:24:48;100259.47;;;13.94;100.00
13968;BME280;39536;52.198;9.920;2024-02-16T08:27:15;100251.38;;;13.98;100.00
13968;BME280;39536;52.198;9.920;2024-02-16T08:29:42;100251.69;;;14.09;100.00
13968;BME280;39536;52.198;9.920;2024-02-16T08:32:09;100252.16;;;14.18;100.00
13968;BME280;39536;52.198;9.920;2024-02-16T08:34:35;100244.34;;;14.16;100.00
13968;BME280;39536;52.198;9.920;2024-02-16T08:37:03;100246.91;;;14.18;100.00
13968;BME280;39536;52.198;9.920;2024-02-16T08:39:37;100244.56;;;14.29;100.00
13968;BME280;39536;52.198;9.920;2024-02-16T08:42:04;100245.94;;;14.36;100.00
13968;BME280;39536;52.198;9.920;2024-02-16T08:44:31;100245.06;;;14.36;100.00
13968;BME280;39536;52.198;9.920;2024-02-16T08:46:57;100245.00;;;14.37;100.00
13968;BME280;39536;52.198;9.920;2024-02-16T08:49:24;100245.16;;;14.34;100.00
13968;BME280;39536;52.198;9.920;2024-02-16T08:51:50;100249.09;;;14.25;100.00
13968;BME280;39536;52.198;9.920;2024-02-16T08:54:17;100243.31;;;14.36;100.00
13968;BME280;39536;52.198;9.920;2024-02-16T08:56:45;100242.22;;;14.40;100.00
13968;BME280;39536;52.198;9.920;2024-02-16T08:59:13;100238.28;;;14.49;100.00
13968;BME280;39536;52.198;9.920;2024-02-16T09:01:40;100236.25;;;14.54;100.00
13968;BME280;39536;52.198;9.920;2024-02-16T09:04:06;100250.13;;;14.56;100.00
13968;BME280;39536;52.198;9.920;2024-02-16T09:06:33;100255.13;;;14.61;100.00
13968;BME280;39536;52.198;9.920;2024-02-16T09:09:00;100257.25;;;14.70;100.00
13968;BME280;39536;52.198;9.920;2024-02-16T09:11:27;100264.78;;;14.76;100.00
13968;BME280;39536;52.198;9.920;2024-02-16T09:13:55;100263.38;;;14.86;100.00
13968;BME280;39536;52.198;9.920;2024-02-16T09:16:22;100258.47;;;14.96;100.00
13968;BME280;39536;52.198;9.920;2024-02-16T09:18:48;100251.94;;;15.03;100.00
13968;BME280;39536;52.198;9.920;2024-02-16T09:21:15;100257.00;;;15.06;100.00
13968;BME280;39536;52.198;9.920;2024-02-16T09:23:41;100253.38;;;15.09;100.00
13968;BME280;39536;52.198;9.920;2024-02-16T09:26:08;100250.59;;;15.12;100.00
13968;BME280;39536;52.198;9.920;2024-02-16T09:28:38;100257.09;;;15.20;100.00
13968;BME280;39536;52.198;9.920;2024-02-16T09:31:06;100259.38;;;15.27;100.00
13968;BME280;39536;52.198;9.920;2024-02-16T09:33:33;100257.09;;;15.20;100.00
13968;BME280;39536;52.198;9.920;2024-02-16T09:36:00;100266.06;;;15.16;100.00
13968;BME280;39536;52.198;9.920;2024-02-16T09:38:26;100256.16;;;15.06;100.00
13968;BME280;39536;52.198;9.920;2024-02-16T09:40:53;100266.31;;;15.12;100.00
13968;BME280;39536;52.198;9.920;2024-02-16T09:43:27;100269.19;;;15.07;100.00
13968;BME280;39536;52.198;9.920;2024-02-16T09:45:58;100278.50;;;15.13;100.00
13968;BME280;39536;52.198;9.920;2024-02-16T09:48:27;100273.06;;;15.32;100.00
13968;BME280;39536;52.198;9.920;2024-02-16T09:50:55;100282.91;;;15.28;100.00
13968;BME280;39536;52.198;9.920;2024-02-16T09:53:24;100282.38;;;15.37;100.00
13968;BME280;39536;52.198;9.920;2024-02-16T09:55:51;100291.38;;;15.33;100.00
13968;BME280;39536;52.198;9.920;2024-02-16T09:58:18;100275.69;;;15.32;100.00
13968;BME280;39536;52.198;9.920;2024-02-16T10:00:48;100287.44;;;15.40;100.00
13968;BME280;39536;52.198;9.920;2024-02-16T10:03:24;100286.63;;;15.40;100.00
13968;BME280;39536;52.198;9.920;2024-02-16T10:06:05;100280.53;;;15.39;100.00
13968;BME280;39536;52.198;9.920;2024-02-16T10:08:32;100287.63;;;15.37;100.00
13968;BME280;39536;52.198;9.920;2024-02-16T10:11:03;100287.53;;;15.39;100.00
13968;BME280;39536;52.198;9.920;2024-02-16T10:13:30;100284.22;;;15.35;100.00
13968;BME280;39536;52.198;9.920;2024-02-16T10:16:06;100288.72;;;15.49;100.00
13968;BME280;39536;52.198;9.920;2024-02-16T10:18:34;100288.09;;;15.60;100.00
13968;BME280;39536;52.198;9.920;2024-02-16T10:21:00;100296.06;;;15.58;100.00
13968;BME280;39536;52.198;9.920;2024-02-16T10:23:29;100300.03;;;15.65;100.00
13968;BME280;39536;52.198;9.920;2024-02-16T10:25:58;100303.16;;;15.72;100.00
13968;BME280;39536;52.198;9.920;2024-02-16T10:28:28;100297.34;;;15.67;100.00
13968;BME280;39536;52.198;9.920;2024-02-16T10:30:58;100298.88;;;15.71;100.00
13968;BME280;39536;52.198;9.920;2024-02-16T10:33:27;100296.78;;;15.76;100.00
13968;BME280;39536;52.198;9.920;2024-02-16T10:35:55;100303.66;;;15.79;100.00
13968;BME280;39536;52.198;9.920;2024-02-16T10:38:25;100306.22;;;15.80;100.00
13968;BME280;39536;52.198;9.920;2024-02-16T10:40:56;100298.16;;;15.83;100.00
13968;BME280;39536;52.198;9.920;2024-02-16T10:43:24;100300.69;;;15.85;100.00
13968;BME280;39536;52.198;9.920;2024-02-16T10:45:55;100305.41;;;15.94;100.00
13968;BME280;39536;52.198;9.920;2024-02-16T10:48:23;100306.63;;;16.03;100.00
13968;BME280;39536;52.198;9.920;2024-02-16T10:50:50;100307.97;;;16.10;100.00
13968;BME280;39536;52.198;9.920;2024-02-16T10:53:21;100298.47;;;16.07;100.00
13968;BME280;39536;52.198;9.920;2024-02-16T10:55:50;100304.13;;;16.01;100.00
13968;BME280;39536;52.198;9.920;2024-02-16T10:58:18;100301.38;;;16.03;100.00
13968;BME280;39536;52.198;9.920;2024-02-16T11:00:49;100307.03;;;16.11;100.00
13968;BME280;39536;52.198;9.920;2024-02-16T11:03:16;100301.88;;;16.09;100.00
13968;BME280;39536;52.198;9.920;2024-02-16T11:05:43;100298.63;;;16.20;100.00
13968;BME280;39536;52.198;9.920;2024-02-16T11:08:12;100296.47;;;16.27;100.00
13968;BME280;39536;52.198;9.920;2024-02-16T11:10:39;100301.72;;;16.27;100.00
13968;BME280;39536;52.198;9.920;2024-02-16T11:13:05;100296.81;;;16.35;100.00
13968;BME280;39536;52.198;9.920;2024-02-16T11:15:35;100287.63;;;16.28;100.00
13968;BME280;39536;52.198;9.920;2024-02-16T11:18:04;100286.78;;;16.42;100.00
13968;BME280;39536;52.198;9.920;2024-02-16T11:20:36;100288.97;;;16.49;100.00
13968;BME280;39536;52.198;9.920;2024-02-16T11:23:08;100294.28;;;16.48;100.00
13968;BME280;39536;52.198;9.920;2024-02-16T11:25:38;100297.13;;;16.59;100.00
13968;BME280;39536;52.198;9.920;2024-02-16T11:28:08;100300.13;;;16.53;100.00
13968;BME280;39536;52.198;9.920;2024-02-16T11:30:36;100298.25;;;16.55;100.00
13968;BME280;39536;52.198;9.920;2024-02-16T11:33:03;100293.84;;;16.55;100.00
13968;BME280;39536;52.198;9.920;2024-02-16T11:35:30;100286.72;;;16.57;100.00
13968;BME280;39536;52.198;9.920;2024-02-16T11:37:57;100292.06;;;16.56;100.00
13968;BME280;39536;52.198;9.920;2024-02-16T11:40:23;100289.59;;;16.38;100.00
13968;BME280;39536;52.198;9.920;2024-02-16T11:42:57;100294.28;;;16.48;100.00
13968;BME280;39536;52.198;9.920;2024-02-16T11:45:24;100295.53;;;16.42;100.00
13968;BME280;39536;52.198;9.920;2024-02-16T11:48:03;100293.19;;;16.52;100.00
13968;BME280;39536;52.198;9.920;2024-02-16T11:50:29;100289.03;;;16.62;100.00
13968;BME280;39536;52.198;9.920;2024-02-16T11:52:56;100281.91;;;16.50;100.00
13968;BME280;39536;52.198;9.920;2024-02-16T11:55:23;100291.28;;;16.68;100.00
13968;BME280;39536;52.198;9.920;2024-02-16T11:57:50;100293.94;;;16.68;100.00
13968;BME280;39536;52.198;9.920;2024-02-16T12:00:17;100289.50;;;16.69;100.00
13968;BME280;39536;52.198;9.920;2024-02-16T12:02:44;100292.63;;;16.75;100.00
13968;BME280;39536;52.198;9.920;2024-02-16T12:05:14;100304.34;;;16.70;100.00
13968;BME280;39536;52.198;9.920;2024-02-16T12:07:41;100297.41;;;16.69;100.00
13968;BME280;39536;52.198;9.920;2024-02-16T12:10:08;100306.69;;;16.74;100.00
13968;BME280;39536;52.198;9.920;2024-02-16T12:12:35;100308.03;;;16.96;100.00
13968;BME280;39536;52.198;9.920;2024-02-16T12:15:05;100313.47;;;16.93;100.00
13968;BME280;39536;52.198;9.920;2024-02-16T12:17:33;100316.56;;;17.14;100.00
13968;BME280;39536;52.198;9.920;2024-02-16T12:19:59;100319.25;;;17.26;100.00
13968;BME280;39536;52.198;9.920;2024-02-16T12:22:27;100309.25;;;17.31;100.00
13968;BME280;39536;52.198;9.920;2024-02-16T12:24:54;100323.50;;;17.15;100.00
13968;BME280;39536;52.198;9.920;2024-02-16T12:27:20;100322.81;;;17.25;100.00
13968;BME280;39536;52.198;9.920;2024-02-16T12:29:47;100316.47;;;17.42;100.00
13968;BME280;39536;52.198;9.920;2024-02-16T12:32:13;100327.09;;;17.41;100.00
13968;BME280;39536;52.198;9.920;2024-02-16T12:34:44;100320.94;;;17.27;100.00
13968;BME280;39536;52.198;9.920;2024-02-16T12:37:11;100326.19;;;17.27;100.00
13968;BME280;39536;52.198;9.920;2024-02-16T12:39:39;100324.41;;;17.28;100.00
13968;BME280;39536;52.198;9.920;2024-02-16T12:42:06;100332.09;;;17.31;100.00